createdAt,value
2022-08-23T00:02:01.422Z,100052.23
2022-08-23T00:04:35.236Z,100057.81
2022-08-23T00:07:06.063Z,100057.16
2022-08-23T00:09:33.620Z,100055.72
2022-08-23T00:12:17.799Z,100052.69
2022-08-23T00:14:51.160Z,100048.77
2022-08-23T00:17:33.286Z,100049.77
2022-08-23T00:20:08.454Z,100050.00
2022-08-23T00:22:37.930Z,100052.20
2022-08-23T00:25:07.794Z,100052.02
2022-08-23T00:27:35.785Z,100045.83
2022-08-23T00:30:06.665Z,100042.36
2022-08-23T00:32:36.534Z,100043.11
2022-08-23T00:35:05.610Z,100042.36
2022-08-23T00:37:33.722Z,100046.92
2022-08-23T00:40:02.139Z,100048.82
2022-08-23T00:42:54.815Z,100045.39
2022-08-23T00:45:48.827Z,100049.25
2022-08-23T00:48:16.737Z,100055.98
2022-08-23T00:50:54.585Z,100057.24
2022-08-23T00:53:30.086Z,100058.62
2022-08-23T00:56:03.242Z,100061.00
2022-08-23T00:58:31.574Z,100056.46
2022-08-23T01:01:01.919Z,100051.73
2022-08-23T01:03:38.623Z,100048.94
2022-08-23T01:06:22.591Z,100046.96
2022-08-23T01:08:57.571Z,100051.88
2022-08-23T01:11:41.058Z,100047.48
2022-08-23T01:14:29.002Z,100044.77
2022-08-23T01:17:03.976Z,100048.58
2022-08-23T01:19:50.941Z,100047.56
2022-08-23T01:22:35.162Z,100046.98
2022-08-23T01:25:09.128Z,100044.73
2022-08-23T01:27:38.698Z,100045.30
2022-08-23T01:30:10.510Z,100053.69
2022-08-23T01:32:45.509Z,100055.14
2022-08-23T01:35:14.104Z,100058.45
2022-08-23T01:37:42.142Z,100055.09
2022-08-23T01:40:10.359Z,100057.11
2022-08-23T01:42:41.468Z,100055.23
2022-08-23T01:45:11.922Z,100059.33
2022-08-23T01:47:40.690Z,100060.31
2022-08-23T01:50:11.207Z,100060.55
2022-08-23T01:52:47.298Z,100055.55
2022-08-23T01:55:16.758Z,100056.83
2022-08-23T01:57:48.270Z,100054.42
2022-08-23T02:00:19.613Z,100054.21
2022-08-23T02:02:47.286Z,100049.91
2022-08-23T02:05:19.057Z,100051.80
2022-08-23T02:07:48.264Z,100049.45
2022-08-23T02:10:16.381Z,100051.98
2022-08-23T02:12:44.334Z,100051.01
2022-08-23T02:15:12.540Z,100053.74
2022-08-23T02:17:40.493Z,100063.88
2022-08-23T02:20:08.748Z,100072.77
2022-08-23T02:22:39.663Z,100080.21
2022-08-23T02:25:08.470Z,100082.99
2022-08-23T02:27:36.048Z,100086.58
2022-08-23T02:30:04.884Z,100088.19
2022-08-23T02:32:32.645Z,100089.14
2022-08-23T02:35:04.419Z,100087.19
2022-08-23T02:37:34.631Z,100084.72
2022-08-23T02:40:05.785Z,100086.85
2022-08-23T02:42:33.430Z,100088.80
2022-08-23T02:45:00.849Z,100089.61
2022-08-23T02:47:28.362Z,100093.98
2022-08-23T02:49:55.867Z,100093.55
2022-08-23T02:52:23.291Z,100102.14
2022-08-23T02:54:50.702Z,100103.55
2022-08-23T02:57:20.997Z,100098.84
2022-08-23T02:59:48.446Z,100099.13
2022-08-23T03:02:15.976Z,100098.75
2022-08-23T03:04:43.481Z,100101.58
2022-08-23T03:07:11.201Z,100098.08
2022-08-23T03:09:38.731Z,100103.58
2022-08-23T03:12:06.436Z,100100.77
2022-08-23T03:14:35.095Z,100097.77
2022-08-23T03:17:07.915Z,100103.05
2022-08-23T03:19:35.722Z,100101.27
2022-08-23T03:22:03.436Z,100101.58
2022-08-23T03:24:31.010Z,100097.48
2022-08-23T03:26:58.796Z,100092.72
2022-08-23T03:29:26.310Z,100087.41
2022-08-23T03:31:54.047Z,100085.02
2022-08-23T03:34:21.709Z,100088.05
2022-08-23T03:36:49.892Z,100086.86
2022-08-23T03:39:17.471Z,100087.99
2022-08-23T03:41:44.943Z,100087.78
2022-08-23T03:44:12.475Z,100087.75
2022-08-23T03:46:40.116Z,100089.86
2022-08-23T03:49:07.663Z,100094.39
2022-08-23T03:51:35.234Z,100096.05
2022-08-23T03:54:03.266Z,100095.38
2022-08-23T03:56:34.329Z,100085.97
2022-08-23T03:59:08.159Z,100090.51
2022-08-23T04:01:36.699Z,100087.79
2022-08-23T04:04:04.432Z,100091.86
2022-08-23T04:06:32.970Z,100089.54
2022-08-23T04:09:00.905Z,100079.82
2022-08-23T04:11:28.581Z,100076.02
2022-08-23T04:13:56.100Z,100079.02
2022-08-23T04:16:23.553Z,100078.81
2022-08-23T04:18:50.978Z,100073.85
2022-08-23T04:21:22.503Z,100069.07
2022-08-23T04:23:50.756Z,100068.52
2022-08-23T04:26:18.340Z,100069.12
2022-08-23T04:28:45.832Z,100067.10
2022-08-23T04:31:14.296Z,100066.52
2022-08-23T04:33:42.980Z,100063.39
2022-08-23T04:36:10.467Z,100059.54
2022-08-23T04:38:38.138Z,100051.77
2022-08-23T04:41:21.702Z,100046.68
2022-08-23T04:43:49.346Z,100045.81
2022-08-23T04:46:17.526Z,100046.08
2022-08-23T04:48:46.513Z,100046.77
2022-08-23T04:51:14.902Z,100051.36
2022-08-23T04:53:42.381Z,100059.23
2022-08-23T04:56:10.218Z,100060.53
2022-08-23T04:58:38.621Z,100057.60
2022-08-23T05:01:08.931Z,100054.62
2022-08-23T05:03:37.645Z,100052.64
2022-08-23T05:06:05.517Z,100049.05
2022-08-23T05:08:34.383Z,100058.98
2022-08-23T05:11:04.374Z,100061.10
2022-08-23T05:13:34.687Z,100065.07
2022-08-23T05:16:03.386Z,100069.55
2022-08-23T05:18:31.372Z,100070.87
2022-08-23T05:20:58.997Z,100066.91
2022-08-23T05:23:31.882Z,100064.86
2022-08-23T05:26:00.840Z,100073.75
2022-08-23T05:28:31.429Z,100101.23
2022-08-23T05:31:06.925Z,100124.44
2022-08-23T05:33:40.458Z,100135.20
2022-08-23T05:36:09.552Z,100142.88
2022-08-23T05:38:38.319Z,100144.68
2022-08-23T05:41:07.076Z,100144.97
2022-08-23T05:43:36.168Z,100148.38
2022-08-23T05:46:13.531Z,100153.20
2022-08-23T05:48:46.737Z,100149.09
2022-08-23T05:51:29.013Z,100151.74
2022-08-23T05:54:06.448Z,100146.95
2022-08-23T05:56:37.540Z,100146.98
2022-08-23T05:59:12.457Z,100131.58
2022-08-23T06:01:41.177Z,100123.39
2022-08-23T06:04:11.894Z,100128.04
2022-08-23T06:06:42.057Z,100126.56
2022-08-23T06:09:15.115Z,100129.39
2022-08-23T06:11:45.309Z,100139.21
2022-08-23T06:14:14.169Z,100141.31
2022-08-23T06:16:44.936Z,100135.83
2022-08-23T06:19:14.229Z,100136.51
2022-08-23T06:21:43.392Z,100139.50
2022-08-23T06:24:12.253Z,100138.21
2022-08-23T06:26:45.126Z,100145.08
2022-08-23T06:29:16.011Z,100154.61
2022-08-23T06:31:49.501Z,100160.70
2022-08-23T06:34:19.928Z,100162.36
2022-08-23T06:36:49.825Z,100159.48
2022-08-23T06:39:19.075Z,100161.21
2022-08-23T06:41:50.115Z,100159.71
2022-08-23T06:44:19.188Z,100165.91
2022-08-23T06:46:49.219Z,100165.64
2022-08-23T06:49:16.988Z,100170.37
2022-08-23T06:51:49.423Z,100168.56
2022-08-23T06:54:20.210Z,100168.27
2022-08-23T06:56:49.432Z,100159.59
2022-08-23T06:59:18.695Z,100157.05
2022-08-23T07:02:04.275Z,100159.95
2022-08-23T07:04:35.622Z,100164.59
2022-08-23T07:07:06.152Z,100169.71
2022-08-23T07:09:37.640Z,100173.30
2022-08-23T07:12:06.532Z,100175.60
2022-08-23T07:14:34.864Z,100175.56
2022-08-23T07:17:03.828Z,100177.64
2022-08-23T07:19:34.545Z,100181.85
2022-08-23T07:22:04.405Z,100183.23
2022-08-23T07:24:33.742Z,100182.59
2022-08-23T07:27:06.760Z,100185.23
2022-08-23T07:29:36.928Z,100184.89
2022-08-23T07:32:05.834Z,100177.38
2022-08-23T07:34:33.436Z,100175.15
2022-08-23T07:37:01.533Z,100179.15
2022-08-23T07:39:31.542Z,100177.05
2022-08-23T07:42:00.795Z,100176.21
2022-08-23T07:44:29.116Z,100176.31
2022-08-23T07:46:57.398Z,100174.71
2022-08-23T07:49:29.396Z,100165.84
2022-08-23T07:51:58.654Z,100161.30
2022-08-23T07:54:27.861Z,100165.48
2022-08-23T07:56:55.334Z,100163.60
2022-08-23T07:59:23.716Z,100166.94
2022-08-23T08:01:51.482Z,100164.96
2022-08-23T08:04:19.045Z,100168.63
2022-08-23T08:07:00.192Z,100167.96
2022-08-23T08:09:37.416Z,100170.59
2022-08-23T08:12:05.022Z,100169.95
2022-08-23T08:14:32.525Z,100164.99
2022-08-23T08:17:04.552Z,100162.80
2022-08-23T08:19:32.229Z,100168.95
2022-08-23T08:21:59.700Z,100167.91
2022-08-23T08:24:27.432Z,100169.63
2022-08-23T08:26:54.977Z,100166.79
2022-08-23T08:29:22.515Z,100167.67
2022-08-23T08:31:54.122Z,100163.26
2022-08-23T08:34:22.201Z,100160.79
2022-08-23T08:36:53.935Z,100163.61
2022-08-23T08:57:44.540Z,100169.55
2022-08-23T09:00:20.471Z,100166.96
2022-08-23T09:15:56.669Z,100173.20
2022-08-23T09:18:24.264Z,100168.30
2022-08-23T09:20:55.434Z,100167.99
2022-08-23T09:23:34.241Z,100170.55
2022-08-23T09:26:22.935Z,100167.40
2022-08-23T09:28:59.665Z,100163.00
2022-08-23T09:31:45.210Z,100161.77
2022-08-23T09:34:20.636Z,100162.75
2022-08-23T09:36:48.554Z,100162.46
2022-08-23T09:39:33.100Z,100160.84
2022-08-23T09:42:00.710Z,100156.98
2022-08-23T09:44:44.054Z,100160.56
2022-08-23T09:47:17.026Z,100160.44
2022-08-23T09:49:48.220Z,100159.44
2022-08-23T09:52:25.890Z,100158.91
2022-08-23T09:55:00.219Z,100158.61
2022-08-23T09:57:31.724Z,100156.50
2022-08-23T10:00:27.615Z,100156.45
2022-08-23T10:03:13.780Z,100152.39
2022-08-23T10:05:41.373Z,100155.71
2022-08-23T10:08:10.678Z,100152.30
2022-08-23T10:10:48.636Z,100146.95
2022-08-23T10:13:20.770Z,100147.02
2022-08-23T10:16:01.940Z,100147.35
2022-08-23T10:18:59.760Z,100144.45
2022-08-23T10:21:42.090Z,100146.45
2022-08-23T10:24:39.063Z,100144.17
2022-08-23T10:27:54.716Z,100140.26
2022-08-23T10:30:54.622Z,100140.90
2022-08-23T10:33:25.063Z,100146.35
2022-08-23T10:36:03.556Z,100142.40
2022-08-23T10:38:49.972Z,100143.38
2022-08-23T10:41:33.590Z,100143.44
2022-08-23T10:44:35.076Z,100144.96
2022-08-23T10:47:08.549Z,100151.52
2022-08-23T10:49:39.629Z,100153.07
2022-08-23T10:52:13.196Z,100148.90
2022-08-23T10:55:00.611Z,100146.60
2022-08-23T10:57:35.209Z,100147.55
2022-08-23T11:00:11.777Z,100149.83
2022-08-23T11:02:50.728Z,100145.58
2022-08-23T11:05:25.567Z,100141.21
2022-08-23T11:08:03.250Z,100141.66
2022-08-23T11:10:56.086Z,100140.57
2022-08-23T11:13:28.111Z,100138.20
2022-08-23T11:16:14.258Z,100134.89
2022-08-23T11:18:48.387Z,100129.70
2022-08-23T11:21:18.761Z,100127.10
2022-08-23T11:24:02.311Z,100125.58
2022-08-23T11:26:31.222Z,100128.13
2022-08-23T11:29:26.562Z,100124.66
2022-08-23T11:32:13.293Z,100129.89
2022-08-23T11:35:05.401Z,100128.48
2022-08-23T11:37:55.699Z,100128.91
2022-08-23T11:40:55.794Z,100129.55
2022-08-23T11:43:41.890Z,100128.52
2022-08-23T11:46:24.266Z,100127.91
2022-08-23T11:49:13.871Z,100124.61
2022-08-23T11:52:02.873Z,100118.16
2022-08-23T11:55:02.332Z,100114.17
2022-08-23T11:57:47.380Z,100112.61
2022-08-23T12:00:46.856Z,100112.64
2022-08-23T12:03:34.777Z,100110.30
2022-08-23T12:06:39.323Z,100109.29
2022-08-23T12:09:12.612Z,100113.46
2022-08-23T12:11:56.128Z,100118.92
2022-08-23T12:14:42.410Z,100111.31
2022-08-23T12:17:12.485Z,100100.94
2022-08-23T12:19:48.152Z,100098.56
2022-08-23T12:22:21.414Z,100094.16
2022-08-23T12:25:07.427Z,100091.45
2022-08-23T12:27:48.911Z,100084.41
2022-08-23T12:30:27.198Z,100086.48
2022-08-23T12:33:02.913Z,100093.58
2022-08-23T12:35:50.729Z,100106.05
2022-08-23T12:38:34.094Z,100109.31
2022-08-23T12:41:23.256Z,100112.31
2022-08-23T12:44:06.897Z,100127.18
2022-08-23T12:46:39.975Z,100130.77
2022-08-23T12:49:13.371Z,100119.30
2022-08-23T12:51:48.921Z,100120.17
2022-08-23T12:54:19.696Z,100118.12
2022-08-23T12:56:53.140Z,100131.67
2022-08-23T12:59:40.063Z,100136.76
2022-08-23T13:02:20.506Z,100159.95
2022-08-23T13:04:48.349Z,100153.17
2022-08-23T13:07:21.215Z,100141.17
2022-08-23T13:09:53.515Z,100098.64
2022-08-23T13:12:23.967Z,100169.43
2022-08-23T13:14:54.168Z,100195.35
2022-08-23T13:17:37.264Z,100184.15
2022-08-23T13:20:07.856Z,100125.44
2022-08-23T13:22:37.280Z,100134.23
2022-08-23T13:25:27.464Z,100151.32
2022-08-23T13:27:59.450Z,100142.23
2022-08-23T13:30:30.065Z,100159.54
2022-08-23T13:33:13.456Z,100145.20
2022-08-23T13:35:51.723Z,100152.77
2022-08-23T13:38:31.345Z,100168.39
2022-08-23T13:41:04.272Z,100167.60
2022-08-23T13:43:33.929Z,100159.88
2022-08-23T13:46:27.281Z,100152.92
2022-08-23T13:49:09.327Z,100139.61
2022-08-23T13:51:42.949Z,100132.06
2022-08-23T13:54:13.805Z,100132.70
2022-08-23T13:56:47.086Z,100142.35
2022-08-23T13:59:31.136Z,100148.68
2022-08-23T14:02:02.395Z,100147.81
2022-08-23T14:04:30.358Z,100149.25
2022-08-23T14:06:57.839Z,100147.83
2022-08-23T14:09:25.356Z,100150.23
2022-08-23T14:11:57.784Z,100156.39
2022-08-23T14:14:26.381Z,100144.55
2022-08-23T14:16:54.453Z,100155.69
2022-08-23T14:22:09.529Z,100181.19
2022-08-23T14:24:37.042Z,100201.60
2022-08-23T14:27:05.240Z,100206.17
2022-08-23T14:29:33.564Z,100205.25
2022-08-23T14:32:01.082Z,100219.02
2022-08-23T14:34:30.264Z,100245.16
2022-08-23T14:39:47.356Z,100292.76
2022-08-23T14:42:19.494Z,100300.69
2022-08-23T14:44:47.021Z,100296.37
2022-08-23T14:47:14.599Z,100304.83
2022-08-23T14:49:42.155Z,100315.24
2022-08-23T14:52:11.148Z,100321.94
2022-08-23T14:54:38.844Z,100321.90
2022-08-23T14:57:06.451Z,100329.48
2022-08-23T14:59:34.855Z,100321.30
2022-08-23T15:02:03.957Z,100296.86
2022-08-23T15:04:34.572Z,100293.30
2022-08-23T15:07:17.649Z,100309.23
2022-08-23T15:09:50.359Z,100321.93
2022-08-23T15:15:12.365Z,100314.23
2022-08-23T15:17:58.540Z,100305.02
2022-08-23T15:20:30.043Z,100296.05
2022-08-23T15:22:58.239Z,100282.52
2022-08-23T15:25:29.621Z,100267.92
2022-08-23T15:27:58.542Z,100266.41
2022-08-23T15:30:26.506Z,100271.35
2022-08-23T15:32:57.954Z,100274.23
2022-08-23T15:35:26.795Z,100276.83
2022-08-23T15:37:56.295Z,100274.96
2022-08-23T15:40:25.555Z,100269.97
2022-08-23T15:42:53.556Z,100268.20
2022-08-23T15:45:21.026Z,100265.30
2022-08-23T15:47:58.729Z,100261.23
2022-08-23T15:50:31.117Z,100254.29
2022-08-23T15:52:59.378Z,100251.40
2022-08-23T15:55:31.911Z,100245.02
2022-08-23T15:57:59.850Z,100241.48
2022-08-23T16:00:27.592Z,100241.19
2022-08-23T16:03:20.037Z,100243.81
2022-08-23T16:05:45.995Z,100243.62
2022-08-23T16:08:24.774Z,100249.42
2022-08-23T16:10:54.251Z,100247.86
2022-08-23T16:13:23.330Z,100245.27
2022-08-23T16:15:51.064Z,100244.92
2022-08-23T16:18:18.668Z,100246.00
2022-08-23T16:20:46.168Z,100242.34
2022-08-23T16:23:13.617Z,100240.92
2022-08-23T16:25:42.499Z,100242.71
2022-08-23T16:28:10.133Z,100242.20
2022-08-23T16:30:37.806Z,100241.54
2022-08-23T16:33:05.686Z,100239.14
2022-08-23T16:35:33.215Z,100234.76
2022-08-23T16:38:00.713Z,100238.70
2022-08-23T16:40:28.189Z,100237.98
2022-08-23T16:42:56.456Z,100245.98
2022-08-23T16:45:25.827Z,100252.46
2022-08-23T16:47:54.189Z,100255.92
2022-08-23T16:50:21.774Z,100267.15
2022-08-23T16:52:49.255Z,100276.66
2022-08-23T16:55:16.923Z,100282.27
2022-08-23T16:57:44.453Z,100282.54
2022-08-23T17:00:13.544Z,100277.27
2022-08-23T17:02:43.188Z,100274.35
2022-08-23T17:05:15.916Z,100276.09
2022-08-23T17:07:43.663Z,100267.44
2022-08-23T17:10:13.650Z,100269.52
2022-08-23T17:12:45.279Z,100261.75
2022-08-23T17:15:20.242Z,100261.48
2022-08-23T17:17:49.185Z,100264.67
2022-08-23T17:20:20.526Z,100274.48
2022-08-23T17:22:49.446Z,100278.84
2022-08-23T17:25:17.966Z,100286.84
2022-08-23T17:27:47.725Z,100287.69
2022-08-23T17:30:17.727Z,100294.88
2022-08-23T17:32:47.769Z,100293.19
2022-08-23T17:35:18.412Z,100292.39
2022-08-23T17:37:46.939Z,100290.67
2022-08-23T17:40:21.285Z,100292.94
2022-08-23T17:42:49.728Z,100293.46
2022-08-23T17:45:18.634Z,100285.31
2022-08-23T17:47:46.702Z,100283.05
2022-08-23T17:50:16.338Z,100286.79
2022-08-23T17:52:45.383Z,100284.70
2022-08-23T17:55:16.943Z,100283.98
2022-08-23T17:57:47.243Z,100285.27
2022-08-23T18:00:17.387Z,100283.90
2022-08-23T18:02:44.936Z,100287.08
2022-08-23T18:05:13.419Z,100284.16
2022-08-23T18:07:41.028Z,100282.77
2022-08-23T18:10:12.423Z,100283.05
2022-08-23T18:12:40.827Z,100289.89
2022-08-23T18:15:09.501Z,100292.59
2022-08-23T18:17:38.821Z,100290.76
2022-08-23T18:20:09.832Z,100287.55
2022-08-23T18:22:38.829Z,100287.62
2022-08-23T18:25:09.817Z,100286.18
2022-08-23T18:27:53.319Z,100292.02
2022-08-23T18:30:20.901Z,100293.59
2022-08-23T18:32:48.423Z,100298.04
2022-08-23T18:35:16.043Z,100293.80
2022-08-23T18:37:43.512Z,100292.63
2022-08-23T18:40:12.197Z,100293.80
2022-08-23T18:42:40.608Z,100295.02
2022-08-23T18:45:09.224Z,100300.73
2022-08-23T18:47:37.473Z,100299.74
2022-08-23T18:50:08.272Z,100293.06
2022-08-23T18:52:35.849Z,100292.23
2022-08-23T18:55:05.162Z,100292.66
2022-08-23T18:57:33.318Z,100295.20
2022-08-23T19:00:00.738Z,100293.17
2022-08-23T19:02:28.679Z,100293.60
2022-08-23T19:04:56.178Z,100297.14
2022-08-23T19:07:23.625Z,100298.34
2022-08-23T19:09:51.057Z,100298.92
2022-08-23T19:12:18.550Z,100301.44
2022-08-23T19:14:46.335Z,100291.52
2022-08-23T19:17:14.026Z,100294.34
2022-08-23T19:19:41.413Z,100295.18
2022-08-23T19:22:08.834Z,100295.13
2022-08-23T19:24:36.298Z,100294.43
2022-08-23T19:27:04.208Z,100294.08
2022-08-23T19:29:31.904Z,100297.65
2022-08-23T19:31:59.521Z,100298.79
2022-08-23T19:34:27.248Z,100295.88
2022-08-23T19:37:00.749Z,100293.93
2022-08-23T19:39:31.043Z,100300.04
2022-08-23T19:41:58.674Z,100304.83
2022-08-23T19:44:26.456Z,100303.55
2022-08-23T19:46:55.604Z,100308.77
2022-08-23T19:49:23.900Z,100312.27
2022-08-23T19:51:51.356Z,100311.11
2022-08-23T19:54:18.986Z,100311.76
2022-08-23T19:56:48.408Z,100312.46
2022-08-23T19:59:20.236Z,100312.27
2022-08-23T20:01:50.830Z,100312.75
2022-08-23T20:04:19.383Z,100304.41
2022-08-23T20:06:48.638Z,100298.77
2022-08-23T20:09:18.811Z,100298.98
2022-08-23T20:11:46.585Z,100300.64
2022-08-23T20:14:15.781Z,100299.42
2022-08-23T20:16:43.277Z,100300.03
2022-08-23T20:19:11.912Z,100297.98
2022-08-23T20:21:41.310Z,100295.77
2022-08-23T20:24:11.345Z,100306.66
2022-08-23T20:26:43.046Z,100320.66
2022-08-23T20:29:16.793Z,100352.95
2022-08-23T20:31:57.010Z,100375.12
2022-08-23T20:34:26.531Z,100391.59
2022-08-23T20:36:56.077Z,100391.60
2022-08-23T20:39:24.653Z,100393.36
2022-08-23T20:41:53.420Z,100411.02
2022-08-23T20:44:22.723Z,100418.59
2022-08-23T20:46:54.401Z,100435.80
2022-08-23T20:49:24.612Z,100451.45
2022-08-23T20:51:52.224Z,100458.00
2022-08-23T20:54:19.768Z,100455.75
2022-08-23T20:56:51.068Z,100456.96
2022-08-23T20:59:20.490Z,100453.78
2022-08-23T21:01:49.096Z,100440.76
2022-08-23T21:04:18.438Z,100427.60
2022-08-23T21:06:49.839Z,100411.18
2022-08-23T21:09:20.347Z,100400.83
2022-08-23T21:11:51.131Z,100404.92
2022-08-23T21:14:20.558Z,100424.31
2022-08-23T21:16:48.242Z,100437.45
2022-08-23T21:19:17.023Z,100430.70
2022-08-23T21:21:44.901Z,100425.20
2022-08-23T21:24:12.853Z,100410.62
2022-08-23T21:26:41.341Z,100386.30
2022-08-23T21:29:09.885Z,100377.92
2022-08-23T21:31:38.922Z,100373.70
2022-08-23T21:34:07.374Z,100374.55
2022-08-23T21:36:35.899Z,100366.60
2022-08-23T21:39:04.612Z,100365.52
2022-08-23T21:41:41.748Z,100358.19
2022-08-23T21:44:13.382Z,100355.66
2022-08-23T21:46:41.845Z,100350.39
2022-08-23T21:49:12.253Z,100349.82
2022-08-23T21:51:41.136Z,100345.09
2022-08-23T21:54:10.983Z,100349.20
2022-08-23T21:56:39.594Z,100344.88
2022-08-23T21:59:10.091Z,100345.86
2022-08-23T22:01:38.187Z,100344.05
2022-08-23T22:04:08.242Z,100342.30
2022-08-23T22:06:38.531Z,100343.63
2022-08-23T22:09:09.027Z,100342.36
2022-08-23T22:11:40.802Z,100335.77
2022-08-23T22:14:15.369Z,100337.70
2022-08-23T22:16:44.104Z,100341.10
2022-08-23T22:19:15.063Z,100334.67
2022-08-23T22:21:44.282Z,100337.23
2022-08-23T22:24:12.369Z,100342.64
2022-08-23T22:26:41.308Z,100336.58
2022-08-23T22:29:09.584Z,100344.09
2022-08-23T22:31:37.927Z,100348.19
2022-08-23T22:34:07.706Z,100355.15
2022-08-23T22:36:36.586Z,100349.64
2022-08-23T22:39:05.244Z,100350.55
2022-08-23T22:41:33.360Z,100350.81
2022-08-23T22:44:02.649Z,100359.96
2022-08-23T22:46:33.628Z,100361.81
2022-08-23T22:49:01.976Z,100359.66
2022-08-23T22:51:32.326Z,100360.60
2022-08-23T22:54:03.787Z,100362.14
2022-08-23T22:56:37.684Z,100366.10
2022-08-23T22:59:06.068Z,100370.02
2022-08-23T23:01:37.707Z,100367.14
2022-08-23T23:04:10.358Z,100368.79
2022-08-23T23:06:38.269Z,100367.04
2022-08-23T23:09:07.790Z,100366.15
2022-08-23T23:11:36.209Z,100363.80
2022-08-23T23:14:05.678Z,100362.35
2022-08-23T23:16:35.838Z,100356.66
2022-08-23T23:19:20.847Z,100354.09
2022-08-23T23:21:51.499Z,100358.94
2022-08-23T23:24:26.289Z,100360.76
2022-08-23T23:26:53.828Z,100361.17
2022-08-23T23:29:21.786Z,100360.04
2022-08-23T23:31:49.241Z,100355.81
2022-08-23T23:34:16.799Z,100353.90
2022-08-23T23:36:45.059Z,100351.85
2022-08-23T23:39:14.400Z,100353.59
2022-08-23T23:41:42.813Z,100357.61
2022-08-23T23:44:10.698Z,100353.06
2022-08-23T23:46:38.186Z,100349.11
2022-08-23T23:49:05.816Z,100348.95
2022-08-23T23:51:33.545Z,100352.55
2022-08-23T23:54:01.755Z,100358.42
2022-08-23T23:56:30.607Z,100357.98
2022-08-23T23:58:59.282Z,100354.33
